sensor_id;sensor_type;location;lat;lon;timestamp;pressure;altitude;pressure_sealevel;temperature;humidity
53522;BME280;39398;48.382;9.802;2023-12-07T00:02:02;94032.22;;;0.24;80.22
53522;BME280;39398;48.382;9.802;2023-12-07T00:07:04;94040.56;;;0.16;78.24
53522;BME280;39398;48.382;9.802;2023-12-07T00:12:07;94042.59;;;0.13;78.25
53522;BME280;39398;48.382;9.802;2023-12-07T00:17:09;94044.34;;;0.12;78.28
53522;BME280;39398;48.382;9.802;2023-12-07T00:22:11;94045.41;;;0.10;79.16
53522;BME280;39398;48.382;9.802;2023-12-07T00:27:14;94044.47;;;0.11;79.08
53522;BME280;39398;48.382;9.802;2023-12-07T00:32:15;94041.38;;;0.17;80.36
53522;BME280;39398;48.382;9.802;2023-12-07T00:37:17;94044.88;;;0.16;79.34
53522;BME280;39398;48.382;9.802;2023-12-07T00:42:20;94045.41;;;0.10;78.28
53522;BME280;39398;48.382;9.802;2023-12-07T00:47:22;94046.75;;;0.14;78.21
53522;BME280;39398;48.382;9.802;2023-12-07T00:52:24;94054.44;;;0.14;78.32
53522;BME280;39398;48.382;9.802;2023-12-07T00:57:27;94060.75;;;0.10;76.33
53522;BME280;39398;48.382;9.802;2023-12-07T01:02:29;94073.38;;;0.02;77.13
53522;BME280;39398;48.382;9.802;2023-12-07T01:07:30;94066.38;;;-0.06;77.95
53522;BME280;39398;48.382;9.802;2023-12-07T01:12:33;94075.81;;;-0.07;78.74
53522;BME280;39398;48.382;9.802;2023-12-07T01:17:35;94076.44;;;-0.14;78.23
53522;BME280;39398;48.382;9.802;2023-12-07T01:22:36;94077.81;;;-0.10;79.29
53522;BME280;39398;48.382;9.802;2023-12-07T01:27:39;94076.31;;;-0.13;78.82
53522;BME280;39398;48.382;9.802;2023-12-07T01:32:41;94085.09;;;-0.06;77.98
53522;BME280;39398;48.382;9.802;2023-12-07T01:37:43;94086.56;;;-0.03;77.36
53522;BME280;39398;48.382;9.802;2023-12-07T01:42:53;94082.94;;;-0.01;77.32
53522;BME280;39398;48.382;9.802;2023-12-07T01:47:55;94086.56;;;0.07;78.43
53522;BME280;39398;48.382;9.802;2023-12-07T01:53:01;94085.09;;;0.04;79.25
53522;BME280;39398;48.382;9.802;2023-12-07T01:58:05;94082.94;;;-0.01;78.25
53522;BME280;39398;48.382;9.802;2023-12-07T02:03:07;94093.28;;;-0.12;75.66
53522;BME280;39398;48.382;9.802;2023-12-07T02:08:09;94086.16;;;-0.08;75.44
53522;BME280;39398;48.382;9.802;2023-12-07T02:13:12;94087.91;;;-0.09;76.51
53522;BME280;39398;48.382;9.802;2023-12-07T02:18:20;94089.22;;;-0.14;77.17
53522;BME280;39398;48.382;9.802;2023-12-07T02:23:25;94088.97;;;-0.21;76.34
53522;BME280;39398;48.382;9.802;2023-12-07T02:28:48;94089.47;;;-0.27;78.61
53522;BME280;39398;48.382;9.802;2023-12-07T02:33:49;94092.47;;;-0.22;78.14
53522;BME280;39398;48.382;9.802;2023-12-07T02:38:54;94094.03;;;-0.30;77.06
53522;BME280;39398;48.382;9.802;2023-12-07T02:43:59;94097.66;;;-0.33;77.01
53522;BME280;39398;48.382;9.802;2023-12-07T02:49:01;94091.63;;;-0.32;78.21
53522;BME280;39398;48.382;9.802;2023-12-07T02:54:03;94083.56;;;-0.37;77.81
53522;BME280;39398;48.382;9.802;2023-12-07T02:59:06;94086.50;;;-0.42;77.44
53522;BME280;39398;48.382;9.802;2023-12-07T03:04:07;94086.88;;;-0.46;78.97
53522;BME280;39398;48.382;9.802;2023-12-07T03:09:09;94090.91;;;-0.53;77.97
53522;BME280;39398;48.382;9.802;2023-12-07T03:14:12;94083.25;;;-0.53;77.59
53522;BME280;39398;48.382;9.802;2023-12-07T03:19:14;94091.97;;;-0.56;77.66
53522;BME280;39398;48.382;9.802;2023-12-07T03:24:15;94086.31;;;-0.59;76.07
53522;BME280;39398;48.382;9.802;2023-12-07T03:29:18;94094.78;;;-0.59;76.88
53522;BME280;39398;48.382;9.802;2023-12-07T03:34:20;94089.53;;;-0.57;75.75
53522;BME280;39398;48.382;9.802;2023-12-07T03:39:22;94087.81;;;-0.57;77.69
53522;BME280;39398;48.382;9.802;2023-12-07T03:44:25;94081.84;;;-0.67;75.21
53522;BME280;39398;48.382;9.802;2023-12-07T03:49:26;94087.94;;;-0.58;76.50
53522;BME280;39398;48.382;9.802;2023-12-07T03:54:28;94090.44;;;-0.98;73.51
53522;BME280;39398;48.382;9.802;2023-12-07T03:59:31;94101.19;;;-1.25;77.85
53522;BME280;39398;48.382;9.802;2023-12-07T04:04:32;94098.06;;;-1.08;78.25
53522;BME280;39398;48.382;9.802;2023-12-07T04:09:34;94094.69;;;-1.18;78.69
53522;BME280;39398;48.382;9.802;2023-12-07T04:14:37;94100.31;;;-1.15;78.15
53522;BME280;39398;48.382;9.802;2023-12-07T04:19:39;94109.09;;;-1.08;78.87
53522;BME280;39398;48.382;9.802;2023-12-07T04:24:40;94108.97;;;-1.06;77.30
53522;BME280;39398;48.382;9.802;2023-12-07T04:29:43;94113.75;;;-1.33;77.49
53522;BME280;39398;48.382;9.802;2023-12-07T04:34:45;94122.09;;;-1.31;78.85
53522;BME280;39398;48.382;9.802;2023-12-07T04:39:47;94119.63;;;-1.43;78.20
53522;BME280;39398;48.382;9.802;2023-12-07T04:44:50;94117.19;;;-1.44;78.15
53522;BME280;39398;48.382;9.802;2023-12-07T04:49:52;94116.69;;;-1.38;75.86
53522;BME280;39398;48.382;9.802;2023-12-07T04:54:54;94123.84;;;-1.53;76.32
53522;BME280;39398;48.382;9.802;2023-12-07T04:59:57;94124.94;;;-1.46;76.08
53522;BME280;39398;48.382;9.802;2023-12-07T05:04:58;94121.31;;;-1.53;75.24
53522;BME280;39398;48.382;9.802;2023-12-07T05:10:00;94114.81;;;-1.57;72.63
53522;BME280;39398;48.382;9.802;2023-12-07T05:15:04;94124.00;;;-1.65;71.86
53522;BME280;39398;48.382;9.802;2023-12-07T05:20:07;94122.91;;;-1.52;70.81
53522;BME280;39398;48.382;9.802;2023-12-07T05:25:09;94128.31;;;-1.45;68.94
53522;BME280;39398;48.382;9.802;2023-12-07T05:30:12;94123.09;;;-1.44;69.43
53522;BME280;39398;48.382;9.802;2023-12-07T05:35:14;94121.28;;;-1.32;69.56
53522;BME280;39398;48.382;9.802;2023-12-07T05:40:15;94119.97;;;-1.26;72.38
53522;BME280;39398;48.382;9.802;2023-12-07T05:45:18;94122.41;;;-1.25;68.82
53522;BME280;39398;48.382;9.802;2023-12-07T05:50:20;94132.03;;;-1.28;65.05
53522;BME280;39398;48.382;9.802;2023-12-07T05:55:22;94135.34;;;-1.37;65.35
53522;BME280;39398;48.382;9.802;2023-12-07T06:00:25;94141.44;;;-1.29;71.74
53522;BME280;39398;48.382;9.802;2023-12-07T06:05:26;94147.09;;;-1.25;72.77
53522;BME280;39398;48.382;9.802;2023-12-07T06:10:28;94149.06;;;-1.50;75.20
53522;BME280;39398;48.382;9.802;2023-12-07T06:15:31;94141.69;;;-1.53;75.63
53522;BME280;39398;48.382;9.802;2023-12-07T06:20:33;94143.97;;;-1.50;76.98
53522;BME280;39398;48.382;9.802;2023-12-07T06:25:34;94144.25;;;-1.53;76.46
53522;BME280;39398;48.382;9.802;2023-12-07T06:30:38;94132.59;;;-1.46;76.91
53522;BME280;39398;48.382;9.802;2023-12-07T06:35:39;94140.81;;;-1.42;77.08
53522;BME280;39398;48.382;9.802;2023-12-07T06:40:41;94130.88;;;-1.45;75.63
53522;BME280;39398;48.382;9.802;2023-12-07T06:45:44;94129.06;;;-1.54;74.18
53522;BME280;39398;48.382;9.802;2023-12-07T06:50:45;94133.13;;;-1.52;72.81
53522;BME280;39398;48.382;9.802;2023-12-07T06:55:47;94137.69;;;-1.46;73.02
53522;BME280;39398;48.382;9.802;2023-12-07T07:00:50;94133.06;;;-1.41;73.58
53522;BME280;39398;48.382;9.802;2023-12-07T07:05:52;94133.06;;;-1.41;73.59
53522;BME280;39398;48.382;9.802;2023-12-07T07:10:55;94133.75;;;-1.38;71.78
53522;BME280;39398;48.382;9.802;2023-12-07T07:15:58;94140.47;;;-1.37;71.72
53522;BME280;39398;48.382;9.802;2023-12-07T07:20:59;94145.16;;;-1.33;73.25
53522;BME280;39398;48.382;9.802;2023-12-07T07:26:01;94140.44;;;-1.17;76.39
53522;BME280;39398;48.382;9.802;2023-12-07T07:31:04;94129.41;;;-1.17;72.02
53522;BME280;39398;48.382;9.802;2023-12-07T07:36:07;94127.88;;;-1.29;69.94
53522;BME280;39398;48.382;9.802;2023-12-07T07:41:08;94137.28;;;-1.09;75.06
53522;BME280;39398;48.382;9.802;2023-12-07T07:46:11;94132.97;;;-1.09;74.48
53522;BME280;39398;48.382;9.802;2023-12-07T07:51:13;94135.66;;;-1.10;71.29
53522;BME280;39398;48.382;9.802;2023-12-07T07:56:15;94155.06;;;-0.98;72.96
53522;BME280;39398;48.382;9.802;2023-12-07T08:01:17;94151.06;;;-0.91;73.06
53522;BME280;39398;48.382;9.802;2023-12-07T08:06:19;94144.38;;;-0.82;70.28
53522;BME280;39398;48.382;9.802;2023-12-07T08:11:21;94137.22;;;-0.67;69.83
53522;BME280;39398;48.382;9.802;2023-12-07T08:16:24;94141.56;;;-0.58;72.60
53522;BME280;39398;48.382;9.802;2023-12-07T08:21:26;94133.72;;;-0.36;74.65
53522;BME280;39398;48.382;9.802;2023-12-07T08:26:31;94136.59;;;-0.50;68.76
53522;BME280;39398;48.382;9.802;2023-12-07T08:31:34;94127.69;;;-0.16;70.13
53522;BME280;39398;48.382;9.802;2023-12-07T08:36:36;94133.69;;;0.14;70.76
53522;BME280;39398;48.382;9.802;2023-12-07T08:41:37;94128.03;;;0.29;68.91
53522;BME280;39398;48.382;9.802;2023-12-07T08:46:40;94125.34;;;0.50;68.27
53522;BME280;39398;48.382;9.802;2023-12-07T08:51:42;94136.78;;;0.65;69.79
53522;BME280;39398;48.382;9.802;2023-12-07T08:57:04;94134.19;;;0.85;67.94
53522;BME280;39398;48.382;9.802;2023-12-07T09:02:07;94140.50;;;1.00;68.70
53522;BME280;39398;48.382;9.802;2023-12-07T09:07:08;94149.63;;;1.12;67.75
53522;BME280;39398;48.382;9.802;2023-12-07T09:12:10;94145.41;;;1.30;68.40
53522;BME280;39398;48.382;9.802;2023-12-07T09:17:13;94140.81;;;1.34;68.42
53522;BME280;39398;48.382;9.802;2023-12-07T09:22:14;94136.56;;;1.52;66.98
53522;BME280;39398;48.382;9.802;2023-12-07T09:27:21;94144.44;;;1.68;66.52
53522;BME280;39398;48.382;9.802;2023-12-07T09:32:24;94142.81;;;1.77;64.19
53522;BME280;39398;48.382;9.802;2023-12-07T09:37:36;94133.91;;;1.71;63.45
53522;BME280;39398;48.382;9.802;2023-12-07T09:42:38;94120.81;;;1.74;63.09
53522;BME280;39398;48.382;9.802;2023-12-07T09:47:41;94124.09;;;1.94;63.12
53522;BME280;39398;48.382;9.802;2023-12-07T09:52:44;94107.66;;;1.87;61.97
53522;BME280;39398;48.382;9.802;2023-12-07T09:57:57;94104.38;;;1.95;61.17
53522;BME280;39398;48.382;9.802;2023-12-07T10:03:00;94096.84;;;2.11;62.09
53522;BME280;39398;48.382;9.802;2023-12-07T10:08:02;94088.25;;;2.02;62.56
53522;BME280;39398;48.382;9.802;2023-12-07T10:13:04;94088.94;;;2.04;61.99
53522;BME280;39398;48.382;9.802;2023-12-07T10:18:07;94083.91;;;1.85;59.22
53522;BME280;39398;48.382;9.802;2023-12-07T10:23:09;94073.09;;;1.91;60.88
53522;BME280;39398;48.382;9.802;2023-12-07T10:28:11;94073.47;;;1.96;61.44
53522;BME280;39398;48.382;9.802;2023-12-07T10:33:14;94056.63;;;1.94;58.44
53522;BME280;39398;48.382;9.802;2023-12-07T10:38:16;94055.16;;;2.09;59.18
53522;BME280;39398;48.382;9.802;2023-12-07T10:43:19;94043.44;;;2.06;59.72
53522;BME280;39398;48.382;9.802;2023-12-07T10:48:23;94049.88;;;2.10;59.34
53522;BME280;39398;48.382;9.802;2023-12-07T10:53:27;94029.81;;;1.88;57.80
53522;BME280;39398;48.382;9.802;2023-12-07T10:58:29;94016.69;;;1.91;58.77
53522;BME280;39398;48.382;9.802;2023-12-07T11:03:32;94019.91;;;1.93;58.36
53522;BME280;39398;48.382;9.802;2023-12-07T11:08:39;94021.91;;;1.99;58.34
53522;BME280;39398;48.382;9.802;2023-12-07T11:13:49;94027.91;;;2.08;59.19
53522;BME280;39398;48.382;9.802;2023-12-07T11:18:55;94034.41;;;2.02;57.80
53522;BME280;39398;48.382;9.802;2023-12-07T11:23:59;94025.56;;;1.97;60.13
53522;BME280;39398;48.382;9.802;2023-12-07T11:29:01;94015.50;;;2.03;59.57
53522;BME280;39398;48.382;9.802;2023-12-07T11:34:06;94011.41;;;2.10;59.69
53522;BME280;39398;48.382;9.802;2023-12-07T11:39:17;93999.03;;;1.88;58.42
53522;BME280;39398;48.382;9.802;2023-12-07T11:44:33;93990.69;;;2.04;59.74
53522;BME280;39398;48.382;9.802;2023-12-07T11:49:36;93984.97;;;2.10;60.44
53522;BME280;39398;48.382;9.802;2023-12-07T11:54:38;93978.31;;;1.99;59.73
53522;BME280;39398;48.382;9.802;2023-12-07T11:59:39;93966.13;;;2.01;59.18
53522;BME280;39398;48.382;9.802;2023-12-07T12:04:43;93967.97;;;1.91;58.24
53522;BME280;39398;48.382;9.802;2023-12-07T12:09:44;93963.53;;;1.93;57.05
53522;BME280;39398;48.382;9.802;2023-12-07T12:14:46;93944.19;;;1.81;55.36
53522;BME280;39398;48.382;9.802;2023-12-07T12:19:49;93945.06;;;1.72;57.54
53522;BME280;39398;48.382;9.802;2023-12-07T12:24:51;93939.22;;;1.62;59.32
53522;BME280;39398;48.382;9.802;2023-12-07T12:29:53;93931.97;;;1.57;57.05
53522;BME280;39398;48.382;9.802;2023-12-07T12:34:58;93929.91;;;1.43;58.19
53522;BME280;39398;48.382;9.802;2023-12-07T12:40:05;93914.31;;;1.36;61.70
53522;BME280;39398;48.382;9.802;2023-12-07T12:45:08;93910.06;;;1.27;59.33
53522;BME280;39398;48.382;9.802;2023-12-07T12:50:12;93903.25;;;1.18;58.95
53522;BME280;39398;48.382;9.802;2023-12-07T12:55:14;93905.53;;;1.21;60.00
53522;BME280;39398;48.382;9.802;2023-12-07T13:00:16;93888.78;;;1.27;60.57
53522;BME280;39398;48.382;9.802;2023-12-07T13:05:19;93885.78;;;1.31;61.25
53522;BME280;39398;48.382;9.802;2023-12-07T13:10:21;93879.56;;;1.16;60.64
53522;BME280;39398;48.382;9.802;2023-12-07T13:15:23;93866.16;;;1.22;60.40
53522;BME280;39398;48.382;9.802;2023-12-07T13:20:26;93874.78;;;1.21;60.36
53522;BME280;39398;48.382;9.802;2023-12-07T13:25:27;93871.22;;;1.32;60.19
53522;BME280;39398;48.382;9.802;2023-12-07T13:30:29;93870.75;;;1.36;59.97
53522;BME280;39398;48.382;9.802;2023-12-07T13:35:32;93872.47;;;1.46;61.43
53522;BME280;39398;48.382;9.802;2023-12-07T13:40:34;93866.59;;;1.35;61.19
53522;BME280;39398;48.382;9.802;2023-12-07T13:45:35;93860.75;;;1.25;59.58
53522;BME280;39398;48.382;9.802;2023-12-07T13:50:38;93853.72;;;1.27;60.10
53522;BME280;39398;48.382;9.802;2023-12-07T13:55:40;93848.22;;;1.22;58.82
53522;BME280;39398;48.382;9.802;2023-12-07T14:00:42;93850.34;;;1.09;59.23
53522;BME280;39398;48.382;9.802;2023-12-07T14:05:45;93855.19;;;1.12;59.82
53522;BME280;39398;48.382;9.802;2023-12-07T14:10:46;93871.13;;;1.06;59.14
53522;BME280;39398;48.382;9.802;2023-12-07T14:15:48;93867.91;;;1.04;59.70
53522;BME280;39398;48.382;9.802;2023-12-07T14:20:51;93871.38;;;1.13;61.07
53522;BME280;39398;48.382;9.802;2023-12-07T14:26:13;93864.09;;;1.08;59.51
53522;BME280;39398;48.382;9.802;2023-12-07T14:31:14;93863.53;;;1.14;59.28
53522;BME280;39398;48.382;9.802;2023-12-07T14:36:17;93854.44;;;1.02;59.78
53522;BME280;39398;48.382;9.802;2023-12-07T14:41:19;93855.38;;;1.01;59.76
53522;BME280;39398;48.382;9.802;2023-12-07T14:46:20;93851.28;;;0.90;59.55
53522;BME280;39398;48.382;9.802;2023-12-07T14:51:23;93844.25;;;0.75;59.48
53522;BME280;39398;48.382;9.802;2023-12-07T14:56:25;93849.09;;;0.78;60.37
53522;BME280;39398;48.382;9.802;2023-12-07T15:01:27;93844.44;;;0.63;60.82
53522;BME280;39398;48.382;9.802;2023-12-07T15:06:30;93840.97;;;0.55;60.91
53522;BME280;39398;48.382;9.802;2023-12-07T15:11:32;93836.06;;;0.44;58.75
53522;BME280;39398;48.382;9.802;2023-12-07T15:16:34;93833.72;;;0.32;58.03
53522;BME280;39398;48.382;9.802;2023-12-07T15:21:37;93843.81;;;0.24;59.56
53522;BME280;39398;48.382;9.802;2023-12-07T15:26:41;93828.41;;;0.16;58.79
53522;BME280;39398;48.382;9.802;2023-12-07T15:31:43;93827.75;;;0.05;60.25
53522;BME280;39398;48.382;9.802;2023-12-07T15:36:46;93830.88;;;-0.02;61.90
53522;BME280;39398;48.382;9.802;2023-12-07T15:41:47;93832.63;;;-0.12;60.19
53522;BME280;39398;48.382;9.802;2023-12-07T15:46:49;93824.06;;;-0.20;60.71
53522;BME280;39398;48.382;9.802;2023-12-07T15:51:52;93813.63;;;-0.46;58.98
53522;BME280;39398;48.382;9.802;2023-12-07T15:56:58;93809.09;;;-0.52;59.19
53522;BME280;39398;48.382;9.802;2023-12-07T16:02:00;93783.56;;;-0.52;58.65
53522;BME280;39398;48.382;9.802;2023-12-07T16:07:05;93766.75;;;-0.64;59.57
53522;BME280;39398;48.382;9.802;2023-12-07T16:12:10;93772.56;;;-0.72;59.30
53522;BME280;39398;48.382;9.802;2023-12-07T16:17:13;93755.38;;;-0.80;59.66
53522;BME280;39398;48.382;9.802;2023-12-07T16:22:16;93751.88;;;-0.79;60.39
53522;BME280;39398;48.382;9.802;2023-12-07T16:27:17;93740.84;;;-0.79;61.17
53522;BME280;39398;48.382;9.802;2023-12-07T16:32:19;93743.53;;;-0.81;61.72
53522;BME280;39398;48.382;9.802;2023-12-07T16:37:23;93756.16;;;-0.79;63.31
53522;BME280;39398;48.382;9.802;2023-12-07T16:42:25;93753.38;;;-0.86;62.32
53522;BME280;39398;48.382;9.802;2023-12-07T16:47:26;93741.28;;;-0.93;62.81
53522;BME280;39398;48.382;9.802;2023-12-07T16:52:30;93730.81;;;-1.00;63.42
53522;BME280;39398;48.382;9.802;2023-12-07T16:57:33;93733.53;;;-1.01;64.17
53522;BME280;39398;48.382;9.802;2023-12-07T17:02:34;93739.03;;;-1.06;64.14
53522;BME280;39398;48.382;9.802;2023-12-07T17:07:37;93741.44;;;-1.04;64.82
53522;BME280;39398;48.382;9.802;2023-12-07T17:12:39;93738.09;;;-1.05;66.49
53522;BME280;39398;48.382;9.802;2023-12-07T17:17:41;93723.06;;;-1.18;66.63
53522;BME280;39398;48.382;9.802;2023-12-07T17:22:44;93726.13;;;-1.33;65.11
53522;BME280;39398;48.382;9.802;2023-12-07T17:27:45;93727.88;;;-1.34;64.68
53522;BME280;39398;48.382;9.802;2023-12-07T17:32:47;93713.78;;;-1.28;65.06
53522;BME280;39398;48.382;9.802;2023-12-07T17:37:51;93719.16;;;-1.31;64.69
53522;BME280;39398;48.382;9.802;2023-12-07T17:42:52;93709.88;;;-1.32;64.86
53522;BME280;39398;48.382;9.802;2023-12-07T17:47:54;93700.38;;;-1.30;67.41
53522;BME280;39398;48.382;9.802;2023-12-07T17:52:57;93698.88;;;-1.33;66.19
53522;BME280;39398;48.382;9.802;2023-12-07T17:57:59;93697.97;;;-1.42;65.38
53522;BME280;39398;48.382;9.802;2023-12-07T18:03:00;93692.72;;;-1.50;65.49
53522;BME280;39398;48.382;9.802;2023-12-07T18:08:04;93676.22;;;-1.55;65.53
53522;BME280;39398;48.382;9.802;2023-12-07T18:13:05;93663.59;;;-1.66;65.64
53522;BME280;39398;48.382;9.802;2023-12-07T18:18:07;93675.41;;;-1.65;65.80
53522;BME280;39398;48.382;9.802;2023-12-07T18:23:10;93674.34;;;-1.63;66.69
53522;BME280;39398;48.382;9.802;2023-12-07T18:28:12;93680.09;;;-1.61;68.02
53522;BME280;39398;48.382;9.802;2023-12-07T18:33:13;93669.00;;;-1.69;66.75
53522;BME280;39398;48.382;9.802;2023-12-07T18:38:17;93666.41;;;-1.79;66.54
53522;BME280;39398;48.382;9.802;2023-12-07T18:43:18;93660.66;;;-1.91;66.41
53522;BME280;39398;48.382;9.802;2023-12-07T18:48:20;93664.25;;;-1.93;66.29
53522;BME280;39398;48.382;9.802;2023-12-07T18:53:23;93646.69;;;-2.06;66.41
53522;BME280;39398;48.382;9.802;2023-12-07T18:58:25;93629.50;;;-2.14;67.57
53522;BME280;39398;48.382;9.802;2023-12-07T19:03:26;93644.78;;;-2.14;69.18
53522;BME280;39398;48.382;9.802;2023-12-07T19:08:29;93633.53;;;-2.21;68.47
53522;BME280;39398;48.382;9.802;2023-12-07T19:13:31;93638.31;;;-2.37;67.91
53522;BME280;39398;48.382;9.802;2023-12-07T19:18:33;93625.69;;;-2.48;69.22
53522;BME280;39398;48.382;9.802;2023-12-07T19:23:36;93635.16;;;-2.69;71.08
53522;BME280;39398;48.382;9.802;2023-12-07T19:28:38;93641.69;;;-2.76;73.58
53522;BME280;39398;48.382;9.802;2023-12-07T19:33:40;93630.06;;;-3.00;73.42
53522;BME280;39398;48.382;9.802;2023-12-07T19:38:43;93625.25;;;-3.03;72.69
53522;BME280;39398;48.382;9.802;2023-12-07T19:43:44;93626.84;;;-3.02;73.64
53522;BME280;39398;48.382;9.802;2023-12-07T19:48:46;93622.25;;;-3.08;74.01
53522;BME280;39398;48.382;9.802;2023-12-07T19:53:50;93628.97;;;-3.07;73.54
53522;BME280;39398;48.382;9.802;2023-12-07T19:58:51;93631.31;;;-3.15;74.56
53522;BME280;39398;48.382;9.802;2023-12-07T20:03:53;93625.38;;;-3.25;74.73
53522;BME280;39398;48.382;9.802;2023-12-07T20:08:56;93621.03;;;-3.34;75.15
53522;BME280;39398;48.382;9.802;2023-12-07T20:13:58;93613.69;;;-3.37;74.87
53522;BME280;39398;48.382;9.802;2023-12-07T20:19:00;93615.06;;;-3.54;76.36
53522;BME280;39398;48.382;9.802;2023-12-07T20:24:04;93602.59;;;-3.36;75.90
53522;BME280;39398;48.382;9.802;2023-12-07T20:29:05;93591.91;;;-3.30;75.29
53522;BME280;39398;48.382;9.802;2023-12-07T20:34:07;93578.69;;;-3.24;75.18
53522;BME280;39398;48.382;9.802;2023-12-07T20:39:10;93544.06;;;-3.16;74.89
53522;BME280;39398;48.382;9.802;2023-12-07T20:44:12;93530.66;;;-3.27;73.60
53522;BME280;39398;48.382;9.802;2023-12-07T20:49:13;93524.47;;;-3.34;74.94
53522;BME280;39398;48.382;9.802;2023-12-07T20:54:16;93518.38;;;-3.22;75.01
53522;BME280;39398;48.382;9.802;2023-12-07T20:59:18;93508.22;;;-3.22;74.44
53522;BME280;39398;48.382;9.802;2023-12-07T21:04:21;93506.28;;;-3.39;74.51
53522;BME280;39398;48.382;9.802;2023-12-07T21:09:24;93494.06;;;-3.76;76.19
53522;BME280;39398;48.382;9.802;2023-12-07T21:14:26;93496.00;;;-3.89;77.84
53522;BME280;39398;48.382;9.802;2023-12-07T21:19:28;93493.94;;;-3.95;77.40
53522;BME280;39398;48.382;9.802;2023-12-07T21:24:31;93483.22;;;-3.99;78.39
53522;BME280;39398;48.382;9.802;2023-12-07T21:29:33;93472.09;;;-4.07;77.83
53522;BME280;39398;48.382;9.802;2023-12-07T21:34:38;93459.66;;;-4.31;80.01
53522;BME280;39398;48.382;9.802;2023-12-07T21:39:42;93461.38;;;-4.32;80.42
53522;BME280;39398;48.382;9.802;2023-12-07T21:44:44;93453.72;;;-4.20;80.66
53522;BME280;39398;48.382;9.802;2023-12-07T21:49:46;93451.03;;;-3.98;79.87
53522;BME280;39398;48.382;9.802;2023-12-07T21:54:49;93450.00;;;-4.16;78.42
53522;BME280;39398;48.382;9.802;2023-12-07T21:59:50;93454.78;;;-4.02;79.41
53522;BME280;39398;48.382;9.802;2023-12-07T22:04:52;93449.09;;;-3.85;79.19
53522;BME280;39398;48.382;9.802;2023-12-07T22:09:55;93444.22;;;-3.98;79.01
53522;BME280;39398;48.382;9.802;2023-12-07T22:14:56;93423.44;;;-3.82;77.30
53522;BME280;39398;48.382;9.802;2023-12-07T22:19:58;93420.53;;;-4.29;77.62
53522;BME280;39398;48.382;9.802;2023-12-07T22:25:01;93407.00;;;-4.39;78.84
53522;BME280;39398;48.382;9.802;2023-12-07T22:30:03;93390.16;;;-4.61;79.78
53522;BME280;39398;48.382;9.802;2023-12-07T22:35:06;93388.50;;;-4.71;80.28
53522;BME280;39398;48.382;9.802;2023-12-07T22:40:10;93379.47;;;-4.64;80.29
53522;BME280;39398;48.382;9.802;2023-12-07T22:45:11;93373.47;;;-4.63;80.71
53522;BME280;39398;48.382;9.802;2023-12-07T22:50:13;93374.28;;;-4.42;81.00
53522;BME280;39398;48.382;9.802;2023-12-07T22:55:16;93379.84;;;-4.48;79.29
53522;BME280;39398;48.382;9.802;2023-12-07T23:00:19;93377.88;;;-4.14;81.16
53522;BME280;39398;48.382;9.802;2023-12-07T23:05:21;93374.97;;;-4.09;79.89
53522;BME280;39398;48.382;9.802;2023-12-07T23:10:25;93377.66;;;-4.01;79.17
53522;BME280;39398;48.382;9.802;2023-12-07T23:15:26;93364.22;;;-3.82;79.38
53522;BME280;39398;48.382;9.802;2023-12-07T23:20:28;93353.88;;;-4.00;78.95
53522;BME280;39398;48.382;9.802;2023-12-07T23:25:31;93349.34;;;-4.37;80.14
53522;BME280;39398;48.382;9.802;2023-12-07T23:30:32;93341.56;;;-4.86;79.85
53522;BME280;39398;48.382;9.802;2023-12-07T23:35:34;93327.88;;;-4.95;81.71
53522;BME280;39398;48.382;9.802;2023-12-07T23:40:37;93322.13;;;-4.76;82.11
53522;BME280;39398;48.382;9.802;2023-12-07T23:45:39;93325.28;;;-4.84;81.10
53522;BME280;39398;48.382;9.802;2023-12-07T23:50:41;93323.75;;;-4.75;81.91
53522;BME280;39398;48.382;9.802;2023-12-07T23:55:44;93321.81;;;-4.62;81.65
